sensor_id;sensor_type;location;lat;lon;timestamp;temperature;humidity
15926;DHT22;8062;53.882;10.642;2023-12-20T00:01:11;4.80;99.90
15926;DHT22;8062;53.882;10.642;2023-12-20T00:02:31;4.80;99.90
15926;DHT22;8062;53.882;10.642;2023-12-20T00:03:50;4.80;99.90
15926;DHT22;8062;53.882;10.642;2023-12-20T00:05:09;4.80;99.90
15926;DHT22;8062;53.882;10.642;2023-12-20T00:06:30;4.80;99.90
15926;DHT22;8062;53.882;10.642;2023-12-20T00:07:50;4.80;99.90
15926;DHT22;8062;53.882;10.642;2023-12-20T00:09:09;4.80;99.90
15926;DHT22;8062;53.882;10.642;2023-12-20T00:10:29;4.80;99.90
15926;DHT22;8062;53.882;10.642;2023-12-20T00:11:49;4.80;99.90
15926;DHT22;8062;53.882;10.642;2023-12-20T00:13:08;4.80;99.90
15926;DHT22;8062;53.882;10.642;2023-12-20T00:14:28;4.90;99.90
15926;DHT22;8062;53.882;10.642;2023-12-20T00:15:48;4.90;99.90
15926;DHT22;8062;53.882;10.642;2023-12-20T00:17:07;4.90;99.90
15926;DHT22;8062;53.882;10.642;2023-12-20T00:18:27;4.90;99.90
15926;DHT22;8062;53.882;10.642;2023-12-20T00:19:46;4.90;99.90
15926;DHT22;8062;53.882;10.642;2023-12-20T00:21:06;4.90;99.90
15926;DHT22;8062;53.882;10.642;2023-12-20T00:22:25;4.80;99.90
15926;DHT22;8062;53.882;10.642;2023-12-20T00:23:45;4.80;99.90
15926;DHT22;8062;53.882;10.642;2023-12-20T00:25:05;4.90;99.90
15926;DHT22;8062;53.882;10.642;2023-12-20T00:26:24;4.90;99.90
15926;DHT22;8062;53.882;10.642;2023-12-20T00:27:44;4.90;99.90
15926;DHT22;8062;53.882;10.642;2023-12-20T00:29:03;4.80;99.90
15926;DHT22;8062;53.882;10.642;2023-12-20T00:30:22;4.80;99.90
15926;DHT22;8062;53.882;10.642;2023-12-20T00:31:42;4.80;99.90
15926;DHT22;8062;53.882;10.642;2023-12-20T00:33:02;4.80;99.90
15926;DHT22;8062;53.882;10.642;2023-12-20T00:34:21;4.80;99.90
15926;DHT22;8062;53.882;10.642;2023-12-20T00:35:41;4.80;99.90
15926;DHT22;8062;53.882;10.642;2023-12-20T00:37:01;4.70;99.90
15926;DHT22;8062;53.882;10.642;2023-12-20T00:38:20;4.70;99.90
15926;DHT22;8062;53.882;10.642;2023-12-20T00:39:40;4.70;99.90
15926;DHT22;8062;53.882;10.642;2023-12-20T00:41:00;4.70;99.90
15926;DHT22;8062;53.882;10.642;2023-12-20T00:42:19;4.70;99.90
15926;DHT22;8062;53.882;10.642;2023-12-20T00:43:39;4.80;99.90
15926;DHT22;8062;53.882;10.642;2023-12-20T00:44:59;4.80;99.90
15926;DHT22;8062;53.882;10.642;2023-12-20T00:46:18;4.80;99.90
15926;DHT22;8062;53.882;10.642;2023-12-20T00:47:39;4.90;99.90
15926;DHT22;8062;53.882;10.642;2023-12-20T00:48:58;4.90;99.90
15926;DHT22;8062;53.882;10.642;2023-12-20T00:50:18;4.90;99.90
15926;DHT22;8062;53.882;10.642;2023-12-20T00:51:37;5.00;99.90
15926;DHT22;8062;53.882;10.642;2023-12-20T00:52:56;5.00;99.90
15926;DHT22;8062;53.882;10.642;2023-12-20T00:54:16;5.00;99.90
15926;DHT22;8062;53.882;10.642;2023-12-20T00:55:36;5.00;99.90
15926;DHT22;8062;53.882;10.642;2023-12-20T00:56:56;4.90;99.90
15926;DHT22;8062;53.882;10.642;2023-12-20T00:58:15;4.90;99.90
15926;DHT22;8062;53.882;10.642;2023-12-20T00:59:35;4.90;99.90
15926;DHT22;8062;53.882;10.642;2023-12-20T01:00:55;4.90;99.90
15926;DHT22;8062;53.882;10.642;2023-12-20T01:02:15;4.90;99.90
15926;DHT22;8062;53.882;10.642;2023-12-20T01:03:34;4.90;99.90
15926;DHT22;8062;53.882;10.642;2023-12-20T01:04:54;4.90;99.90
15926;DHT22;8062;53.882;10.642;2023-12-20T01:06:13;4.90;99.90
15926;DHT22;8062;53.882;10.642;2023-12-20T01:07:33;4.90;99.90
15926;DHT22;8062;53.882;10.642;2023-12-20T01:08:53;4.90;99.90
15926;DHT22;8062;53.882;10.642;2023-12-20T01:10:13;4.90;99.90
15926;DHT22;8062;53.882;10.642;2023-12-20T01:11:32;5.00;99.90
15926;DHT22;8062;53.882;10.642;2023-12-20T01:12:52;5.00;99.90
15926;DHT22;8062;53.882;10.642;2023-12-20T01:14:12;5.00;99.90
15926;DHT22;8062;53.882;10.642;2023-12-20T01:15:31;5.10;99.90
15926;DHT22;8062;53.882;10.642;2023-12-20T01:16:51;5.10;99.90
15926;DHT22;8062;53.882;10.642;2023-12-20T01:18:10;5.20;99.90
15926;DHT22;8062;53.882;10.642;2023-12-20T01:19:30;5.10;99.90
15926;DHT22;8062;53.882;10.642;2023-12-20T01:20:49;5.10;99.90
15926;DHT22;8062;53.882;10.642;2023-12-20T01:22:08;5.10;99.90
15926;DHT22;8062;53.882;10.642;2023-12-20T01:23:28;5.10;99.90
15926;DHT22;8062;53.882;10.642;2023-12-20T01:24:48;5.10;99.90
15926;DHT22;8062;53.882;10.642;2023-12-20T01:26:08;5.10;99.90
15926;DHT22;8062;53.882;10.642;2023-12-20T01:27:27;5.10;99.90
15926;DHT22;8062;53.882;10.642;2023-12-20T01:28:47;5.00;99.90
15926;DHT22;8062;53.882;10.642;2023-12-20T01:30:07;5.00;99.90
15926;DHT22;8062;53.882;10.642;2023-12-20T01:31:26;5.00;99.90
15926;DHT22;8062;53.882;10.642;2023-12-20T01:32:46;5.00;99.90
15926;DHT22;8062;53.882;10.642;2023-12-20T01:34:06;5.00;99.90
15926;DHT22;8062;53.882;10.642;2023-12-20T01:35:26;5.00;99.90
15926;DHT22;8062;53.882;10.642;2023-12-20T01:36:45;5.00;99.90
15926;DHT22;8062;53.882;10.642;2023-12-20T01:38:05;5.00;99.90
15926;DHT22;8062;53.882;10.642;2023-12-20T01:39:24;5.00;99.90
15926;DHT22;8062;53.882;10.642;2023-12-20T01:40:44;5.00;99.90
15926;DHT22;8062;53.882;10.642;2023-12-20T01:42:04;4.90;99.90
15926;DHT22;8062;53.882;10.642;2023-12-20T01:43:24;4.90;99.90
15926;DHT22;8062;53.882;10.642;2023-12-20T01:44:43;4.90;99.90
15926;DHT22;8062;53.882;10.642;2023-12-20T01:46:03;4.90;99.90
15926;DHT22;8062;53.882;10.642;2023-12-20T01:47:23;4.80;99.90
15926;DHT22;8062;53.882;10.642;2023-12-20T01:48:43;4.80;99.90
15926;DHT22;8062;53.882;10.642;2023-12-20T01:50:02;4.80;99.90
15926;DHT22;8062;53.882;10.642;2023-12-20T01:51:23;4.80;99.90
15926;DHT22;8062;53.882;10.642;2023-12-20T01:52:45;4.80;99.90
15926;DHT22;8062;53.882;10.642;2023-12-20T01:54:04;4.80;99.90
15926;DHT22;8062;53.882;10.642;2023-12-20T01:55:25;4.80;99.90
15926;DHT22;8062;53.882;10.642;2023-12-20T01:56:46;4.90;99.90
15926;DHT22;8062;53.882;10.642;2023-12-20T01:58:09;4.90;99.90
15926;DHT22;8062;53.882;10.642;2023-12-20T01:59:30;4.90;99.90
15926;DHT22;8062;53.882;10.642;2023-12-20T02:00:50;4.90;99.90
15926;DHT22;8062;53.882;10.642;2023-12-20T02:02:09;5.00;99.90
15926;DHT22;8062;53.882;10.642;2023-12-20T02:03:31;5.00;99.90
15926;DHT22;8062;53.882;10.642;2023-12-20T02:04:51;4.90;99.90
15926;DHT22;8062;53.882;10.642;2023-12-20T02:06:11;5.00;99.90
15926;DHT22;8062;53.882;10.642;2023-12-20T02:07:31;5.00;99.90
15926;DHT22;8062;53.882;10.642;2023-12-20T02:08:51;5.00;99.90
15926;DHT22;8062;53.882;10.642;2023-12-20T02:10:11;5.00;99.90
15926;DHT22;8062;53.882;10.642;2023-12-20T02:11:30;5.00;99.90
15926;DHT22;8062;53.882;10.642;2023-12-20T02:12:50;5.00;99.90
15926;DHT22;8062;53.882;10.642;2023-12-20T02:14:10;5.00;99.90
15926;DHT22;8062;53.882;10.642;2023-12-20T02:15:29;5.00;99.90
15926;DHT22;8062;53.882;10.642;2023-12-20T02:16:49;5.00;99.90
15926;DHT22;8062;53.882;10.642;2023-12-20T02:18:09;5.00;99.90
15926;DHT22;8062;53.882;10.642;2023-12-20T02:19:28;5.00;99.90
15926;DHT22;8062;53.882;10.642;2023-12-20T02:20:48;5.00;99.90
15926;DHT22;8062;53.882;10.642;2023-12-20T02:22:11;5.00;99.90
15926;DHT22;8062;53.882;10.642;2023-12-20T02:23:31;5.00;99.90
15926;DHT22;8062;53.882;10.642;2023-12-20T02:24:50;4.90;99.90
15926;DHT22;8062;53.882;10.642;2023-12-20T02:26:10;4.90;99.90
15926;DHT22;8062;53.882;10.642;2023-12-20T02:27:30;4.90;99.90
15926;DHT22;8062;53.882;10.642;2023-12-20T02:28:50;4.90;99.90
15926;DHT22;8062;53.882;10.642;2023-12-20T02:30:10;4.90;99.90
15926;DHT22;8062;53.882;10.642;2023-12-20T02:31:30;4.90;99.90
15926;DHT22;8062;53.882;10.642;2023-12-20T02:32:50;4.90;99.90
15926;DHT22;8062;53.882;10.642;2023-12-20T02:34:10;5.00;99.90
15926;DHT22;8062;53.882;10.642;2023-12-20T02:35:30;5.00;99.90
15926;DHT22;8062;53.882;10.642;2023-12-20T02:36:49;5.00;99.90
15926;DHT22;8062;53.882;10.642;2023-12-20T02:38:09;5.00;99.90
15926;DHT22;8062;53.882;10.642;2023-12-20T02:39:30;5.10;99.90
15926;DHT22;8062;53.882;10.642;2023-12-20T02:40:50;5.10;99.90
15926;DHT22;8062;53.882;10.642;2023-12-20T02:42:09;5.10;99.90
15926;DHT22;8062;53.882;10.642;2023-12-20T02:43:29;5.20;99.90
15926;DHT22;8062;53.882;10.642;2023-12-20T02:44:48;5.20;99.90
15926;DHT22;8062;53.882;10.642;2023-12-20T02:46:08;5.10;99.90
15926;DHT22;8062;53.882;10.642;2023-12-20T02:47:28;5.10;99.90
15926;DHT22;8062;53.882;10.642;2023-12-20T02:48:49;5.10;99.90
15926;DHT22;8062;53.882;10.642;2023-12-20T02:50:08;5.10;99.90
15926;DHT22;8062;53.882;10.642;2023-12-20T02:51:28;5.20;99.90
15926;DHT22;8062;53.882;10.642;2023-12-20T02:52:47;5.20;99.90
15926;DHT22;8062;53.882;10.642;2023-12-20T02:54:07;5.20;99.90
15926;DHT22;8062;53.882;10.642;2023-12-20T02:55:27;5.20;99.90
15926;DHT22;8062;53.882;10.642;2023-12-20T02:56:47;5.20;99.90
15926;DHT22;8062;53.882;10.642;2023-12-20T02:58:06;5.20;99.90
15926;DHT22;8062;53.882;10.642;2023-12-20T02:59:26;5.30;99.90
15926;DHT22;8062;53.882;10.642;2023-12-20T03:00:45;5.30;99.90
15926;DHT22;8062;53.882;10.642;2023-12-20T03:02:04;5.20;99.90
15926;DHT22;8062;53.882;10.642;2023-12-20T03:03:24;5.30;99.90
15926;DHT22;8062;53.882;10.642;2023-12-20T03:04:44;5.30;99.90
15926;DHT22;8062;53.882;10.642;2023-12-20T03:06:03;5.30;99.90
15926;DHT22;8062;53.882;10.642;2023-12-20T03:07:23;5.30;99.90
15926;DHT22;8062;53.882;10.642;2023-12-20T03:08:43;5.30;99.90
15926;DHT22;8062;53.882;10.642;2023-12-20T03:10:03;5.30;99.90
15926;DHT22;8062;53.882;10.642;2023-12-20T03:11:26;5.30;99.90
15926;DHT22;8062;53.882;10.642;2023-12-20T03:12:47;5.40;99.90
15926;DHT22;8062;53.882;10.642;2023-12-20T03:14:06;5.40;99.90
15926;DHT22;8062;53.882;10.642;2023-12-20T03:15:26;5.40;99.90
15926;DHT22;8062;53.882;10.642;2023-12-20T03:16:52;5.40;99.90
15926;DHT22;8062;53.882;10.642;2023-12-20T03:18:11;5.40;99.90
15926;DHT22;8062;53.882;10.642;2023-12-20T03:19:31;5.30;99.90
15926;DHT22;8062;53.882;10.642;2023-12-20T03:20:50;5.30;99.90
15926;DHT22;8062;53.882;10.642;2023-12-20T03:22:10;5.30;99.90
15926;DHT22;8062;53.882;10.642;2023-12-20T03:23:30;5.30;99.90
15926;DHT22;8062;53.882;10.642;2023-12-20T03:24:51;5.40;99.90
15926;DHT22;8062;53.882;10.642;2023-12-20T03:26:11;5.40;99.90
15926;DHT22;8062;53.882;10.642;2023-12-20T03:27:30;5.40;99.90
15926;DHT22;8062;53.882;10.642;2023-12-20T03:28:50;5.30;99.90
15926;DHT22;8062;53.882;10.642;2023-12-20T03:30:10;5.40;99.90
15926;DHT22;8062;53.882;10.642;2023-12-20T03:31:29;5.40;99.90
15926;DHT22;8062;53.882;10.642;2023-12-20T03:32:49;5.30;99.90
15926;DHT22;8062;53.882;10.642;2023-12-20T03:34:08;5.40;99.90
15926;DHT22;8062;53.882;10.642;2023-12-20T03:35:28;5.30;99.90
15926;DHT22;8062;53.882;10.642;2023-12-20T03:36:47;5.30;99.90
15926;DHT22;8062;53.882;10.642;2023-12-20T03:38:07;5.30;99.90
15926;DHT22;8062;53.882;10.642;2023-12-20T03:39:27;5.30;99.90
15926;DHT22;8062;53.882;10.642;2023-12-20T03:40:47;5.30;99.90
15926;DHT22;8062;53.882;10.642;2023-12-20T03:42:06;5.30;99.90
15926;DHT22;8062;53.882;10.642;2023-12-20T03:43:25;5.30;99.90
15926;DHT22;8062;53.882;10.642;2023-12-20T03:44:45;5.30;99.90
15926;DHT22;8062;53.882;10.642;2023-12-20T03:46:05;5.30;99.90
15926;DHT22;8062;53.882;10.642;2023-12-20T03:47:24;5.30;99.90
15926;DHT22;8062;53.882;10.642;2023-12-20T03:48:44;5.30;99.90
15926;DHT22;8062;53.882;10.642;2023-12-20T03:50:04;5.30;99.90
15926;DHT22;8062;53.882;10.642;2023-12-20T03:51:24;5.30;99.90
15926;DHT22;8062;53.882;10.642;2023-12-20T03:52:44;5.30;99.90
15926;DHT22;8062;53.882;10.642;2023-12-20T03:54:03;5.40;99.90
15926;DHT22;8062;53.882;10.642;2023-12-20T03:55:22;5.40;99.90
15926;DHT22;8062;53.882;10.642;2023-12-20T03:56:42;5.40;99.90
15926;DHT22;8062;53.882;10.642;2023-12-20T03:58:01;5.40;99.90
15926;DHT22;8062;53.882;10.642;2023-12-20T03:59:22;5.40;99.90
15926;DHT22;8062;53.882;10.642;2023-12-20T04:00:42;5.30;99.90
15926;DHT22;8062;53.882;10.642;2023-12-20T04:02:01;5.30;99.90
15926;DHT22;8062;53.882;10.642;2023-12-20T04:03:21;5.30;99.90
15926;DHT22;8062;53.882;10.642;2023-12-20T04:04:41;5.30;99.90
15926;DHT22;8062;53.882;10.642;2023-12-20T04:06:01;5.30;99.90
15926;DHT22;8062;53.882;10.642;2023-12-20T04:07:21;5.30;99.90
15926;DHT22;8062;53.882;10.642;2023-12-20T04:08:40;5.30;99.90
15926;DHT22;8062;53.882;10.642;2023-12-20T04:10:00;5.30;99.90
15926;DHT22;8062;53.882;10.642;2023-12-20T04:11:20;5.30;99.90
15926;DHT22;8062;53.882;10.642;2023-12-20T04:12:39;5.30;99.90
15926;DHT22;8062;53.882;10.642;2023-12-20T04:13:59;5.30;99.90
15926;DHT22;8062;53.882;10.642;2023-12-20T04:15:19;5.30;99.90
15926;DHT22;8062;53.882;10.642;2023-12-20T04:16:38;5.30;99.90
15926;DHT22;8062;53.882;10.642;2023-12-20T04:17:58;5.30;99.90
15926;DHT22;8062;53.882;10.642;2023-12-20T04:19:18;5.40;99.90
15926;DHT22;8062;53.882;10.642;2023-12-20T04:20:37;5.40;99.90
15926;DHT22;8062;53.882;10.642;2023-12-20T04:21:57;5.30;99.90
15926;DHT22;8062;53.882;10.642;2023-12-20T04:23:16;5.40;99.90
15926;DHT22;8062;53.882;10.642;2023-12-20T04:24:36;5.40;99.90
15926;DHT22;8062;53.882;10.642;2023-12-20T04:25:55;5.40;99.90
15926;DHT22;8062;53.882;10.642;2023-12-20T04:27:15;5.40;99.90
15926;DHT22;8062;53.882;10.642;2023-12-20T04:28:35;5.40;99.90
15926;DHT22;8062;53.882;10.642;2023-12-20T04:29:54;5.40;99.90
15926;DHT22;8062;53.882;10.642;2023-12-20T04:31:14;5.40;99.90
15926;DHT22;8062;53.882;10.642;2023-12-20T04:32:33;5.40;99.90
15926;DHT22;8062;53.882;10.642;2023-12-20T04:33:53;5.40;99.90
15926;DHT22;8062;53.882;10.642;2023-12-20T04:35:12;5.40;99.90
15926;DHT22;8062;53.882;10.642;2023-12-20T04:36:32;5.40;99.90
15926;DHT22;8062;53.882;10.642;2023-12-20T04:37:51;5.40;99.90
15926;DHT22;8062;53.882;10.642;2023-12-20T04:39:12;5.40;99.90
15926;DHT22;8062;53.882;10.642;2023-12-20T04:40:32;5.40;99.90
15926;DHT22;8062;53.882;10.642;2023-12-20T04:41:51;5.40;99.90
15926;DHT22;8062;53.882;10.642;2023-12-20T04:43:11;5.40;99.90
15926;DHT22;8062;53.882;10.642;2023-12-20T04:44:30;5.40;99.90
15926;DHT22;8062;53.882;10.642;2023-12-20T04:45:50;5.40;99.90
15926;DHT22;8062;53.882;10.642;2023-12-20T04:47:09;5.40;99.90
15926;DHT22;8062;53.882;10.642;2023-12-20T04:48:29;5.40;99.90
15926;DHT22;8062;53.882;10.642;2023-12-20T04:49:48;5.40;99.90
15926;DHT22;8062;53.882;10.642;2023-12-20T04:51:08;5.30;99.90
15926;DHT22;8062;53.882;10.642;2023-12-20T04:52:27;5.40;99.90
15926;DHT22;8062;53.882;10.642;2023-12-20T04:53:46;5.40;99.90
15926;DHT22;8062;53.882;10.642;2023-12-20T04:55:06;5.40;99.90
15926;DHT22;8062;53.882;10.642;2023-12-20T04:56:26;5.30;99.90
15926;DHT22;8062;53.882;10.642;2023-12-20T04:57:45;5.30;99.90
15926;DHT22;8062;53.882;10.642;2023-12-20T04:59:05;5.40;99.90
15926;DHT22;8062;53.882;10.642;2023-12-20T05:00:25;5.30;99.90
15926;DHT22;8062;53.882;10.642;2023-12-20T05:01:44;5.40;99.90
15926;DHT22;8062;53.882;10.642;2023-12-20T05:03:04;5.40;99.90
15926;DHT22;8062;53.882;10.642;2023-12-20T05:04:23;5.40;99.90
15926;DHT22;8062;53.882;10.642;2023-12-20T05:05:43;5.40;99.90
15926;DHT22;8062;53.882;10.642;2023-12-20T05:07:03;5.40;99.90
15926;DHT22;8062;53.882;10.642;2023-12-20T05:08:24;5.40;99.90
15926;DHT22;8062;53.882;10.642;2023-12-20T05:09:44;5.40;99.90
15926;DHT22;8062;53.882;10.642;2023-12-20T05:11:04;5.40;99.90
15926;DHT22;8062;53.882;10.642;2023-12-20T05:12:24;5.40;99.90
15926;DHT22;8062;53.882;10.642;2023-12-20T05:13:43;5.40;99.90
15926;DHT22;8062;53.882;10.642;2023-12-20T05:15:05;5.40;99.90
15926;DHT22;8062;53.882;10.642;2023-12-20T05:16:25;5.40;99.90
15926;DHT22;8062;53.882;10.642;2023-12-20T05:17:44;5.40;99.90
15926;DHT22;8062;53.882;10.642;2023-12-20T05:19:04;5.40;99.90
15926;DHT22;8062;53.882;10.642;2023-12-20T05:20:25;5.40;99.90
15926;DHT22;8062;53.882;10.642;2023-12-20T05:21:45;5.40;99.90
15926;DHT22;8062;53.882;10.642;2023-12-20T05:23:04;5.40;99.90
15926;DHT22;8062;53.882;10.642;2023-12-20T05:24:24;5.50;99.90
15926;DHT22;8062;53.882;10.642;2023-12-20T05:25:44;5.50;99.90
15926;DHT22;8062;53.882;10.642;2023-12-20T05:27:04;5.50;99.90
15926;DHT22;8062;53.882;10.642;2023-12-20T05:28:23;5.50;99.90
15926;DHT22;8062;53.882;10.642;2023-12-20T05:29:42;5.50;99.90
15926;DHT22;8062;53.882;10.642;2023-12-20T05:31:02;5.50;99.90
15926;DHT22;8062;53.882;10.642;2023-12-20T05:32:22;5.50;99.90
15926;DHT22;8062;53.882;10.642;2023-12-20T05:33:42;5.50;99.90
15926;DHT22;8062;53.882;10.642;2023-12-20T05:35:01;5.50;99.90
15926;DHT22;8062;53.882;10.642;2023-12-20T05:36:21;5.50;99.90
15926;DHT22;8062;53.882;10.642;2023-12-20T05:37:41;5.50;99.90
15926;DHT22;8062;53.882;10.642;2023-12-20T05:39:00;5.50;99.90
15926;DHT22;8062;53.882;10.642;2023-12-20T05:40:20;5.50;99.90
15926;DHT22;8062;53.882;10.642;2023-12-20T05:41:39;5.50;99.90
15926;DHT22;8062;53.882;10.642;2023-12-20T05:42:59;5.50;99.90
15926;DHT22;8062;53.882;10.642;2023-12-20T05:44:19;5.50;99.90
15926;DHT22;8062;53.882;10.642;2023-12-20T05:45:38;5.50;99.90
15926;DHT22;8062;53.882;10.642;2023-12-20T05:46:58;5.50;99.90
15926;DHT22;8062;53.882;10.642;2023-12-20T05:48:17;5.50;99.90
15926;DHT22;8062;53.882;10.642;2023-12-20T05:49:37;5.50;99.90
15926;DHT22;8062;53.882;10.642;2023-12-20T05:50:57;5.50;99.90
15926;DHT22;8062;53.882;10.642;2023-12-20T05:52:17;5.50;99.90
15926;DHT22;8062;53.882;10.642;2023-12-20T05:53:37;5.50;99.90
15926;DHT22;8062;53.882;10.642;2023-12-20T05:54:56;5.50;99.90
15926;DHT22;8062;53.882;10.642;2023-12-20T05:56:17;5.50;99.90
15926;DHT22;8062;53.882;10.642;2023-12-20T05:57:36;5.50;99.90
15926;DHT22;8062;53.882;10.642;2023-12-20T05:58:56;5.50;99.90
15926;DHT22;8062;53.882;10.642;2023-12-20T06:00:16;5.50;99.90
15926;DHT22;8062;53.882;10.642;2023-12-20T06:01:35;5.50;99.90
15926;DHT22;8062;53.882;10.642;2023-12-20T06:02:55;5.50;99.90
15926;DHT22;8062;53.882;10.642;2023-12-20T06:04:14;5.50;99.90
15926;DHT22;8062;53.882;10.642;2023-12-20T06:05:34;5.50;99.90
15926;DHT22;8062;53.882;10.642;2023-12-20T06:06:53;5.50;99.90
15926;DHT22;8062;53.882;10.642;2023-12-20T06:08:13;5.50;99.90
15926;DHT22;8062;53.882;10.642;2023-12-20T06:09:32;5.50;99.90
15926;DHT22;8062;53.882;10.642;2023-12-20T06:10:52;5.50;99.90
15926;DHT22;8062;53.882;10.642;2023-12-20T06:12:12;5.50;99.90
15926;DHT22;8062;53.882;10.642;2023-12-20T06:13:31;5.50;99.90
15926;DHT22;8062;53.882;10.642;2023-12-20T06:14:51;5.50;99.90
15926;DHT22;8062;53.882;10.642;2023-12-20T06:16:10;5.50;99.90
15926;DHT22;8062;53.882;10.642;2023-12-20T06:17:30;5.40;99.90
15926;DHT22;8062;53.882;10.642;2023-12-20T06:18:50;5.40;99.90
15926;DHT22;8062;53.882;10.642;2023-12-20T06:20:10;5.40;99.90
15926;DHT22;8062;53.882;10.642;2023-12-20T06:21:30;5.40;99.90
15926;DHT22;8062;53.882;10.642;2023-12-20T06:22:49;5.40;99.90
15926;DHT22;8062;53.882;10.642;2023-12-20T06:24:09;5.40;99.90
15926;DHT22;8062;53.882;10.642;2023-12-20T06:25:29;5.40;99.90
15926;DHT22;8062;53.882;10.642;2023-12-20T06:26:48;5.40;99.90
15926;DHT22;8062;53.882;10.642;2023-12-20T06:28:08;5.40;99.90
15926;DHT22;8062;53.882;10.642;2023-12-20T06:29:29;5.40;99.90
15926;DHT22;8062;53.882;10.642;2023-12-20T06:30:50;5.40;99.90
15926;DHT22;8062;53.882;10.642;2023-12-20T06:32:11;5.40;99.90
15926;DHT22;8062;53.882;10.642;2023-12-20T06:33:31;5.40;99.90
15926;DHT22;8062;53.882;10.642;2023-12-20T06:34:50;5.40;99.90
15926;DHT22;8062;53.882;10.642;2023-12-20T06:36:13;5.40;99.90
15926;DHT22;8062;53.882;10.642;2023-12-20T06:37:32;5.40;99.90
15926;DHT22;8062;53.882;10.642;2023-12-20T06:38:52;5.40;99.90
15926;DHT22;8062;53.882;10.642;2023-12-20T06:40:12;5.40;99.90
15926;DHT22;8062;53.882;10.642;2023-12-20T06:41:31;5.40;99.90
15926;DHT22;8062;53.882;10.642;2023-12-20T06:42:50;5.40;99.90
15926;DHT22;8062;53.882;10.642;2023-12-20T06:44:10;5.40;99.90
15926;DHT22;8062;53.882;10.642;2023-12-20T06:45:29;5.40;99.90
15926;DHT22;8062;53.882;10.642;2023-12-20T06:46:49;5.40;99.90
15926;DHT22;8062;53.882;10.642;2023-12-20T06:48:09;5.40;99.90
15926;DHT22;8062;53.882;10.642;2023-12-20T06:49:30;5.50;99.90
15926;DHT22;8062;53.882;10.642;2023-12-20T06:50:49;5.40;99.90
15926;DHT22;8062;53.882;10.642;2023-12-20T06:52:09;5.40;99.90
15926;DHT22;8062;53.882;10.642;2023-12-20T06:53:29;5.40;99.90
15926;DHT22;8062;53.882;10.642;2023-12-20T06:54:49;5.50;99.90
15926;DHT22;8062;53.882;10.642;2023-12-20T06:56:10;5.40;99.90
15926;DHT22;8062;53.882;10.642;2023-12-20T06:57:31;5.40;99.90
15926;DHT22;8062;53.882;10.642;2023-12-20T06:58:51;5.40;99.90
15926;DHT22;8062;53.882;10.642;2023-12-20T07:00:11;5.40;99.90
15926;DHT22;8062;53.882;10.642;2023-12-20T07:01:31;5.40;99.90
15926;DHT22;8062;53.882;10.642;2023-12-20T07:02:50;5.40;99.90
15926;DHT22;8062;53.882;10.642;2023-12-20T07:04:10;5.30;99.90
15926;DHT22;8062;53.882;10.642;2023-12-20T07:05:30;5.30;99.90
15926;DHT22;8062;53.882;10.642;2023-12-20T07:06:50;5.30;99.90
15926;DHT22;8062;53.882;10.642;2023-12-20T07:08:16;5.30;99.90
15926;DHT22;8062;53.882;10.642;2023-12-20T07:09:35;5.30;99.90
15926;DHT22;8062;53.882;10.642;2023-12-20T07:10:55;5.30;99.90
15926;DHT22;8062;53.882;10.642;2023-12-20T07:12:15;5.20;99.90
15926;DHT22;8062;53.882;10.642;2023-12-20T07:13:34;5.20;99.90
15926;DHT22;8062;53.882;10.642;2023-12-20T07:14:54;5.20;99.90
15926;DHT22;8062;53.882;10.642;2023-12-20T07:16:13;5.10;99.90
15926;DHT22;8062;53.882;10.642;2023-12-20T07:17:34;5.20;99.90
15926;DHT22;8062;53.882;10.642;2023-12-20T07:18:53;5.20;99.90
15926;DHT22;8062;53.882;10.642;2023-12-20T07:20:13;5.10;99.90
15926;DHT22;8062;53.882;10.642;2023-12-20T07:21:32;5.10;99.90
15926;DHT22;8062;53.882;10.642;2023-12-20T07:22:52;5.10;99.90
15926;DHT22;8062;53.882;10.642;2023-12-20T07:24:11;5.10;99.90
15926;DHT22;8062;53.882;10.642;2023-12-20T07:25:31;5.10;99.90
15926;DHT22;8062;53.882;10.642;2023-12-20T07:26:53;5.20;99.90
15926;DHT22;8062;53.882;10.642;2023-12-20T07:28:13;5.20;99.90
15926;DHT22;8062;53.882;10.642;2023-12-20T07:29:33;5.20;99.90
15926;DHT22;8062;53.882;10.642;2023-12-20T07:30:52;5.30;99.90
15926;DHT22;8062;53.882;10.642;2023-12-20T07:32:12;5.20;99.90
15926;DHT22;8062;53.882;10.642;2023-12-20T07:33:32;5.30;99.90
15926;DHT22;8062;53.882;10.642;2023-12-20T07:34:51;5.30;99.90
15926;DHT22;8062;53.882;10.642;2023-12-20T07:36:12;5.30;99.90
15926;DHT22;8062;53.882;10.642;2023-12-20T07:37:31;5.30;99.90
15926;DHT22;8062;53.882;10.642;2023-12-20T07:38:50;5.40;99.90
15926;DHT22;8062;53.882;10.642;2023-12-20T07:40:10;5.40;99.90
15926;DHT22;8062;53.882;10.642;2023-12-20T07:41:29;5.40;99.90
15926;DHT22;8062;53.882;10.642;2023-12-20T07:42:49;5.40;99.90
15926;DHT22;8062;53.882;10.642;2023-12-20T07:44:09;5.40;99.90
15926;DHT22;8062;53.882;10.642;2023-12-20T07:45:29;5.40;99.90
15926;DHT22;8062;53.882;10.642;2023-12-20T07:46:48;5.40;99.90
15926;DHT22;8062;53.882;10.642;2023-12-20T07:48:08;5.40;99.90
15926;DHT22;8062;53.882;10.642;2023-12-20T07:49:28;5.50;99.90
15926;DHT22;8062;53.882;10.642;2023-12-20T07:50:47;5.50;99.90
15926;DHT22;8062;53.882;10.642;2023-12-20T07:52:07;5.50;99.90
15926;DHT22;8062;53.882;10.642;2023-12-20T07:53:27;5.50;99.90
15926;DHT22;8062;53.882;10.642;2023-12-20T07:54:47;5.50;99.90
15926;DHT22;8062;53.882;10.642;2023-12-20T07:56:17;5.50;99.90
15926;DHT22;8062;53.882;10.642;2023-12-20T07:57:36;5.50;99.90
15926;DHT22;8062;53.882;10.642;2023-12-20T07:58:56;5.50;99.90
15926;DHT22;8062;53.882;10.642;2023-12-20T08:00:16;5.50;99.90
15926;DHT22;8062;53.882;10.642;2023-12-20T08:01:36;5.50;99.90
15926;DHT22;8062;53.882;10.642;2023-12-20T08:02:55;5.50;99.90
15926;DHT22;8062;53.882;10.642;2023-12-20T08:04:15;5.50;99.90
15926;DHT22;8062;53.882;10.642;2023-12-20T08:05:34;5.50;99.90
15926;DHT22;8062;53.882;10.642;2023-12-20T08:06:54;5.50;99.90
15926;DHT22;8062;53.882;10.642;2023-12-20T08:08:13;5.50;99.90
15926;DHT22;8062;53.882;10.642;2023-12-20T08:09:33;5.50;99.90
15926;DHT22;8062;53.882;10.642;2023-12-20T08:10:53;5.50;99.90
15926;DHT22;8062;53.882;10.642;2023-12-20T08:12:13;5.50;99.90
15926;DHT22;8062;53.882;10.642;2023-12-20T08:13:32;5.60;99.90
15926;DHT22;8062;53.882;10.642;2023-12-20T08:14:52;5.50;99.90
15926;DHT22;8062;53.882;10.642;2023-12-20T08:16:11;5.60;99.90
15926;DHT22;8062;53.882;10.642;2023-12-20T08:17:32;5.60;99.90
15926;DHT22;8062;53.882;10.642;2023-12-20T08:18:52;5.60;99.90
15926;DHT22;8062;53.882;10.642;2023-12-20T08:20:12;5.60;99.90
15926;DHT22;8062;53.882;10.642;2023-12-20T08:21:31;5.60;99.90
15926;DHT22;8062;53.882;10.642;2023-12-20T08:22:51;5.60;99.90
15926;DHT22;8062;53.882;10.642;2023-12-20T08:24:10;5.60;99.90
15926;DHT22;8062;53.882;10.642;2023-12-20T08:25:30;5.60;99.90
15926;DHT22;8062;53.882;10.642;2023-12-20T08:26:49;5.60;99.90
15926;DHT22;8062;53.882;10.642;2023-12-20T08:28:09;5.60;99.90
15926;DHT22;8062;53.882;10.642;2023-12-20T08:29:28;5.60;99.90
15926;DHT22;8062;53.882;10.642;2023-12-20T08:30:48;5.60;99.90
15926;DHT22;8062;53.882;10.642;2023-12-20T08:32:07;5.60;99.90